sensor_id;sensor_type;location;lat;lon;timestamp;P1;durP1;ratioP1;P2;durP2;ratioP2
24547;SDS011;12713;51.624;4.924;2024-01-27T08:12:52;46.83;;;22.05;;
24547;SDS011;12713;51.624;4.924;2024-01-27T08:15:38;45.90;;;19.77;;
24547;SDS011;12713;51.624;4.924;2024-01-27T08:18:25;37.90;;;22.00;;
24547;SDS011;12713;51.624;4.924;2024-01-27T08:20:53;44.80;;;18.80;;
24547;SDS011;12713;51.624;4.924;2024-01-27T10:13:35;25.58;;;11.57;;
24547;SDS011;12713;51.624;4.924;2024-01-27T10:16:06;30.25;;;11.63;;
24547;SDS011;12713;51.624;4.924;2024-01-27T10:24:44;23.40;;;10.73;;
24547;SDS011;12713;51.624;4.924;2024-01-27T10:27:21;21.17;;;9.88;;
24547;SDS011;12713;51.624;4.924;2024-01-27T10:29:53;24.58;;;10.57;;
24547;SDS011;12713;51.624;4.924;2024-01-27T10:32:27;28.30;;;11.00;;
24547;SDS011;12713;51.624;4.924;2024-01-27T10:38:32;24.77;;;9.70;;
24547;SDS011;12713;51.624;4.924;2024-01-27T10:41:03;16.80;;;9.20;;
24547;SDS011;12713;51.624;4.924;2024-01-27T10:43:51;28.52;;;10.10;;
24547;SDS011;12713;51.624;4.924;2024-01-27T10:46:20;30.05;;;11.95;;
24547;SDS011;12713;51.624;4.924;2024-01-27T10:52:11;22.67;;;9.30;;
24547;SDS011;12713;51.624;4.924;2024-01-27T10:54:46;25.75;;;8.88;;
24547;SDS011;12713;51.624;4.924;2024-01-27T10:57:24;17.50;;;9.05;;
24547;SDS011;12713;51.624;4.924;2024-01-27T10:59:56;18.17;;;7.95;;
24547;SDS011;12713;51.624;4.924;2024-01-27T11:02:23;18.17;;;7.53;;
24547;SDS011;12713;51.624;4.924;2024-01-27T11:04:53;25.90;;;7.47;;
24547;SDS011;12713;51.624;4.924;2024-01-27T11:07:22;17.27;;;7.72;;
24547;SDS011;12713;51.624;4.924;2024-01-27T11:09:49;18.80;;;6.70;;
24547;SDS011;12713;51.624;4.924;2024-01-27T11:12:27;24.23;;;7.57;;
24547;SDS011;12713;51.624;4.924;2024-01-27T11:14:54;21.05;;;7.28;;
24547;SDS011;12713;51.624;4.924;2024-01-27T11:17:41;22.33;;;7.63;;
24547;SDS011;12713;51.624;4.924;2024-01-27T11:20:54;18.52;;;7.00;;
24547;SDS011;12713;51.624;4.924;2024-01-27T11:23:10;22.40;;;7.13;;
24547;SDS011;12713;51.624;4.924;2024-01-27T11:26:20;18.92;;;6.70;;
24547;SDS011;12713;51.624;4.924;2024-01-27T11:28:48;19.50;;;6.53;;
24547;SDS011;12713;51.624;4.924;2024-01-27T11:31:34;24.42;;;6.50;;
24547;SDS011;12713;51.624;4.924;2024-01-27T11:34:13;20.38;;;6.53;;
24547;SDS011;12713;51.624;4.924;2024-01-27T11:37:10;16.33;;;6.43;;
24547;SDS011;12713;51.624;4.924;2024-01-27T11:42:40;21.27;;;6.70;;
24547;SDS011;12713;51.624;4.924;2024-01-27T11:45:09;19.67;;;6.80;;
24547;SDS011;12713;51.624;4.924;2024-01-27T11:47:35;24.25;;;6.75;;
24547;SDS011;12713;51.624;4.924;2024-01-27T11:53:17;21.80;;;7.75;;
24547;SDS011;12713;51.624;4.924;2024-01-27T11:55:53;19.33;;;6.22;;
24547;SDS011;12713;51.624;4.924;2024-01-27T11:58:23;18.08;;;7.05;;
24547;SDS011;12713;51.624;4.924;2024-01-27T12:00:55;21.70;;;7.78;;
24547;SDS011;12713;51.624;4.924;2024-01-27T12:03:22;23.10;;;8.18;;
24547;SDS011;12713;51.624;4.924;2024-01-27T12:05:50;18.20;;;7.97;;
24547;SDS011;12713;51.624;4.924;2024-01-27T12:08:32;20.95;;;6.68;;
24547;SDS011;12713;51.624;4.924;2024-01-27T12:11:04;29.92;;;8.50;;
24547;SDS011;12713;51.624;4.924;2024-01-27T12:13:30;17.50;;;6.82;;
24547;SDS011;12713;51.624;4.924;2024-01-27T12:16:06;27.60;;;8.18;;
24547;SDS011;12713;51.624;4.924;2024-01-27T12:18:32;23.60;;;7.05;;
24547;SDS011;12713;51.624;4.924;2024-01-27T12:21:01;21.25;;;7.03;;
24547;SDS011;12713;51.624;4.924;2024-01-27T12:23:27;18.33;;;6.00;;
24547;SDS011;12713;51.624;4.924;2024-01-27T12:25:55;21.35;;;7.20;;
24547;SDS011;12713;51.624;4.924;2024-01-27T12:28:24;19.65;;;7.00;;
24547;SDS011;12713;51.624;4.924;2024-01-27T12:30:59;19.02;;;6.72;;
24547;SDS011;12713;51.624;4.924;2024-01-27T12:33:28;20.08;;;8.32;;
24547;SDS011;12713;51.624;4.924;2024-01-27T12:39:17;20.30;;;6.97;;
24547;SDS011;12713;51.624;4.924;2024-01-27T12:41:45;17.27;;;6.75;;
24547;SDS011;12713;51.624;4.924;2024-01-27T12:44:16;25.48;;;7.30;;
24547;SDS011;12713;51.624;4.924;2024-01-27T12:46:45;26.83;;;7.85;;
24547;SDS011;12713;51.624;4.924;2024-01-27T12:49:11;18.80;;;6.25;;
24547;SDS011;12713;51.624;4.924;2024-01-27T12:51:37;26.55;;;6.75;;
24547;SDS011;12713;51.624;4.924;2024-01-27T12:54:08;24.23;;;7.75;;
24547;SDS011;12713;51.624;4.924;2024-01-27T12:56:54;23.05;;;7.40;;
24547;SDS011;12713;51.624;4.924;2024-01-27T12:59:30;17.40;;;6.45;;
24547;SDS011;12713;51.624;4.924;2024-01-27T13:02:04;20.48;;;7.85;;
24547;SDS011;12713;51.624;4.924;2024-01-27T13:04:30;18.85;;;6.43;;
24547;SDS011;12713;51.624;4.924;2024-01-27T13:07:07;20.52;;;7.00;;
24547;SDS011;12713;51.624;4.924;2024-01-27T13:09:39;27.33;;;6.30;;
24547;SDS011;12713;51.624;4.924;2024-01-27T13:12:05;19.23;;;7.18;;
24547;SDS011;12713;51.624;4.924;2024-01-27T13:14:37;22.60;;;5.90;;
24547;SDS011;12713;51.624;4.924;2024-01-27T13:17:08;23.95;;;6.72;;
24547;SDS011;12713;51.624;4.924;2024-01-27T13:19:42;16.40;;;5.85;;
24547;SDS011;12713;51.624;4.924;2024-01-27T13:22:19;22.48;;;6.65;;
24547;SDS011;12713;51.624;4.924;2024-01-27T13:25:15;18.50;;;5.57;;
24547;SDS011;12713;51.624;4.924;2024-01-27T13:28:02;18.10;;;5.88;;
24547;SDS011;12713;51.624;4.924;2024-01-27T13:30:34;26.63;;;6.93;;
24547;SDS011;12713;51.624;4.924;2024-01-27T13:33:06;21.05;;;6.18;;
24547;SDS011;12713;51.624;4.924;2024-01-27T13:35:36;24.20;;;5.82;;
24547;SDS011;12713;51.624;4.924;2024-01-27T13:38:13;17.48;;;6.38;;
24547;SDS011;12713;51.624;4.924;2024-01-27T13:40:40;20.48;;;5.47;;
24547;SDS011;12713;51.624;4.924;2024-01-27T13:43:07;22.42;;;5.55;;
24547;SDS011;12713;51.624;4.924;2024-01-27T13:45:39;21.02;;;5.90;;
24547;SDS011;12713;51.624;4.924;2024-01-27T13:48:10;18.77;;;5.80;;
24547;SDS011;12713;51.624;4.924;2024-01-27T13:50:48;23.17;;;6.88;;
24547;SDS011;12713;51.624;4.924;2024-01-27T13:53:17;24.50;;;6.13;;
24547;SDS011;12713;51.624;4.924;2024-01-27T13:55:44;28.02;;;7.28;;
24547;SDS011;12713;51.624;4.924;2024-01-27T13:58:34;19.55;;;5.50;;
24547;SDS011;12713;51.624;4.924;2024-01-27T14:01:11;23.17;;;7.28;;
24547;SDS011;12713;51.624;4.924;2024-01-27T14:03:42;20.80;;;5.80;;
24547;SDS011;12713;51.624;4.924;2024-01-27T14:06:08;26.17;;;6.47;;
24547;SDS011;12713;51.624;4.924;2024-01-27T14:08:53;27.40;;;5.93;;
24547;SDS011;12713;51.624;4.924;2024-01-27T14:11:53;22.67;;;6.32;;
24547;SDS011;12713;51.624;4.924;2024-01-27T14:24:15;25.73;;;5.88;;
24547;SDS011;12713;51.624;4.924;2024-01-27T14:45:03;22.42;;;5.65;;
24547;SDS011;12713;51.624;4.924;2024-01-27T14:47:29;25.77;;;5.85;;
24547;SDS011;12713;51.624;4.924;2024-01-27T14:50:18;15.80;;;5.05;;
24547;SDS011;12713;51.624;4.924;2024-01-27T14:52:53;20.02;;;6.15;;
24547;SDS011;12713;51.624;4.924;2024-01-27T14:55:22;21.75;;;7.47;;
24547;SDS011;12713;51.624;4.924;2024-01-27T14:57:53;23.13;;;6.50;;
24547;SDS011;12713;51.624;4.924;2024-01-27T15:00:19;22.77;;;6.18;;
24547;SDS011;12713;51.624;4.924;2024-01-27T15:06:10;23.55;;;6.00;;
24547;SDS011;12713;51.624;4.924;2024-01-27T15:11:51;19.92;;;5.40;;
24547;SDS011;12713;51.624;4.924;2024-01-27T15:14:18;25.15;;;6.13;;
24547;SDS011;12713;51.624;4.924;2024-01-27T15:16:45;28.80;;;6.32;;
24547;SDS011;12713;51.624;4.924;2024-01-27T15:19:11;28.20;;;7.68;;
24547;SDS011;12713;51.624;4.924;2024-01-27T15:21:37;20.67;;;7.43;;
24547;SDS011;12713;51.624;4.924;2024-01-27T15:24:04;22.45;;;7.80;;
24547;SDS011;12713;51.624;4.924;2024-01-27T15:26:31;24.80;;;7.40;;
24547;SDS011;12713;51.624;4.924;2024-01-27T15:28:57;20.00;;;6.07;;
24547;SDS011;12713;51.624;4.924;2024-01-27T15:31:26;24.83;;;6.97;;
24547;SDS011;12713;51.624;4.924;2024-01-27T15:33:52;21.63;;;6.05;;
24547;SDS011;12713;51.624;4.924;2024-01-27T15:48:13;21.90;;;5.32;;
24547;SDS011;12713;51.624;4.924;2024-01-27T15:51:04;16.65;;;4.55;;
24547;SDS011;12713;51.624;4.924;2024-01-27T15:53:32;18.55;;;6.82;;
24547;SDS011;12713;51.624;4.924;2024-01-27T15:56:01;22.83;;;6.05;;
24547;SDS011;12713;51.624;4.924;2024-01-27T15:58:44;16.20;;;5.57;;
24547;SDS011;12713;51.624;4.924;2024-01-27T16:10:21;21.92;;;8.93;;
24547;SDS011;12713;51.624;4.924;2024-01-27T16:12:50;23.85;;;6.85;;
24547;SDS011;12713;51.624;4.924;2024-01-27T16:15:22;27.05;;;7.32;;
24547;SDS011;12713;51.624;4.924;2024-01-27T16:30:41;22.38;;;7.75;;
24547;SDS011;12713;51.624;4.924;2024-01-27T16:36:17;12.80;;;5.60;;
24547;SDS011;12713;51.624;4.924;2024-01-27T16:48:40;19.05;;;6.03;;
24547;SDS011;12713;51.624;4.924;2024-01-27T17:19:41;18.60;;;6.78;;
24547;SDS011;12713;51.624;4.924;2024-01-27T17:34:41;18.77;;;8.00;;
24547;SDS011;12713;51.624;4.924;2024-01-27T17:40:17;15.15;;;6.60;;
24547;SDS011;12713;51.624;4.924;2024-01-27T17:42:58;14.88;;;6.47;;
24547;SDS011;12713;51.624;4.924;2024-01-27T17:45:38;13.00;;;6.28;;
24547;SDS011;12713;51.624;4.924;2024-01-27T17:48:08;19.00;;;6.10;;
24547;SDS011;12713;51.624;4.924;2024-01-27T17:50:37;14.65;;;6.20;;
24547;SDS011;12713;51.624;4.924;2024-01-27T17:53:11;15.68;;;6.65;;
24547;SDS011;12713;51.624;4.924;2024-01-27T17:55:39;19.02;;;6.30;;
24547;SDS011;12713;51.624;4.924;2024-01-27T18:01:17;22.05;;;9.32;;
24547;SDS011;12713;51.624;4.924;2024-01-27T18:06:52;32.20;;;11.10;;
24547;SDS011;12713;51.624;4.924;2024-01-27T18:13:15;25.33;;;9.85;;
24547;SDS011;12713;51.624;4.924;2024-01-27T18:16:10;21.33;;;8.88;;
24547;SDS011;12713;51.624;4.924;2024-01-27T18:18:45;23.92;;;10.13;;
24547;SDS011;12713;51.624;4.924;2024-01-27T18:21:32;21.48;;;9.27;;
24547;SDS011;12713;51.624;4.924;2024-01-27T19:06:48;24.13;;;14.50;;
24547;SDS011;12713;51.624;4.924;2024-01-27T22:31:30;30.90;;;13.48;;
24547;SDS011;12713;51.624;4.924;2024-01-27T22:33:57;23.23;;;12.45;;
24547;SDS011;12713;51.624;4.924;2024-01-27T22:36:24;21.15;;;13.43;;
24547;SDS011;12713;51.624;4.924;2024-01-27T22:39:13;28.15;;;12.50;;
24547;SDS011;12713;51.624;4.924;2024-01-27T22:42:18;25.58;;;14.95;;
24547;SDS011;12713;51.624;4.924;2024-01-27T22:48:02;21.80;;;10.15;;
24547;SDS011;12713;51.624;4.924;2024-01-27T22:50:32;22.55;;;11.25;;
24547;SDS011;12713;51.624;4.924;2024-01-27T22:59:30;22.75;;;10.48;;
24547;SDS011;12713;51.624;4.924;2024-01-27T23:02:40;16.25;;;8.45;;
24547;SDS011;12713;51.624;4.924;2024-01-27T23:11:37;24.02;;;9.13;;
24547;SDS011;12713;51.624;4.924;2024-01-27T23:14:09;20.67;;;8.90;;
24547;SDS011;12713;51.624;4.924;2024-01-27T23:23:04;19.52;;;8.90;;
24547;SDS011;12713;51.624;4.924;2024-01-27T23:25:49;19.42;;;8.55;;
24547;SDS011;12713;51.624;4.924;2024-01-27T23:28:27;20.95;;;9.00;;
24547;SDS011;12713;51.624;4.924;2024-01-27T23:44:32;18.67;;;10.00;;
24547;SDS011;12713;51.624;4.924;2024-01-27T23:47:15;19.40;;;9.70;;
24547;SDS011;12713;51.624;4.924;2024-01-27T23:49:59;22.50;;;10.02;;
24547;SDS011;12713;51.624;4.924;2024-01-27T23:55:57;18.73;;;10.23;;
